Time;durP1;ratioP1;P1;durP2;ratioP2;P2;SDS_P1;SDS_P2;PMS_P1;PMS_P2;Temp;Humidity;BMP_temperature;BMP_pressure;BME280_temperature;BME280_humidity;BME280_pressure;Samples;Min_cycle;Max_cycle;Signal;HPM_P1;HPM_P2
2024/02/13 00:00:11;;;;;;;17.13;8.23;;;;;;;;;;5070196;28;20196;-83
2024/02/13 00:02:38;;;;;;;17.02;10.13;;;;;;;;;;5036810;28;20275;-84
2024/02/13 00:05:07;;;;;;;16.92;8.70;;;;;;;;;;5068374;28;20647;-83
2024/02/13 00:07:33;;;;;;;14.07;8.73;;;;;;;;;;5074143;28;20212;-83
2024/02/13 00:09:59;;;;;;;17.45;9.95;;;;;;;;;;5054471;28;20591;-82
2024/02/13 00:12:25;;;;;;;14.18;9.95;;;;;;;;;;5042318;28;20181;-83
2024/02/13 00:14:51;;;;;;;14.52;9.90;;;;;;;;;;5052040;28;20236;-83
2024/02/13 00:17:17;;;;;;;16.35;10.40;;;;;;;;;;5063797;28;20263;-84
2024/02/13 00:19:43;;;;;;;15.07;9.25;;;;;;;;;;5051264;28;20357;-83
2024/02/13 00:22:12;;;;;;;13.30;9.10;;;;;;;;;;5054732;28;20277;-84
2024/02/13 00:24:38;;;;;;;19.55;10.63;;;;;;;;;;5072681;28;20178;-84
2024/02/13 00:27:05;;;;;;;15.20;10.82;;;;;;;;;;5064948;28;20237;-82
2024/02/13 00:29:31;;;;;;;21.75;10.52;;;;;;;;;;5050716;28;20188;-83
2024/02/13 00:31:57;;;;;;;19.30;11.27;;;;;;;;;;5067978;28;20235;-83
2024/02/13 00:34:23;;;;;;;23.05;10.38;;;;;;;;;;5074904;28;20181;-83
2024/02/13 00:36:50;;;;;;;22.65;12.30;;;;;;;;;;5052955;28;20647;-83
2024/02/13 00:39:16;;;;;;;20.98;11.30;;;;;;;;;;5070530;28;20282;-83
2024/02/13 00:41:42;;;;;;;18.13;11.40;;;;;;;;;;5066362;28;20201;-83
2024/02/13 00:44:08;;;;;;;16.13;10.70;;;;;;;;;;5052661;28;20261;-83
2024/02/13 00:46:34;;;;;;;17.40;9.82;;;;;;;;;;5044584;28;20404;-83
2024/02/13 00:49:03;;;;;;;18.92;10.30;;;;;;;;;;5072465;28;20194;-83
2024/02/13 00:51:29;;;;;;;23.40;11.45;;;;;;;;;;5054558;28;20539;-83
2024/02/13 00:53:56;;;;;;;16.70;11.57;;;;;;;;;;5050773;28;20186;-83
2024/02/13 00:56:22;;;;;;;19.27;10.90;;;;;;;;;;5048168;28;20441;-84
2024/02/13 00:58:48;;;;;;;16.60;10.18;;;;;;;;;;5073134;28;20233;-84
2024/02/13 01:01:14;;;;;;;21.27;11.63;;;;;;;;;;5049729;28;20888;-83
2024/02/13 01:03:40;;;;;;;20.23;11.50;;;;;;;;;;5066257;28;20191;-82
2024/02/13 01:06:07;;;;;;;25.25;11.57;;;;;;;;;;5067141;28;20191;-83
2024/02/13 01:08:34;;;;;;;17.58;10.70;;;;;;;;;;5051710;28;20283;-83
2024/02/13 01:11:00;;;;;;;14.63;10.32;;;;;;;;;;5049073;28;20201;-83
2024/02/13 01:13:26;;;;;;;19.50;9.88;;;;;;;;;;5048588;28;20211;-83
2024/02/13 01:15:52;;;;;;;16.67;10.17;;;;;;;;;;5049128;28;20224;-83
2024/02/13 01:18:18;;;;;;;20.67;11.75;;;;;;;;;;5053350;28;20508;-82
2024/02/13 01:20:44;;;;;;;20.97;10.23;;;;;;;;;;5050699;28;20184;-82
2024/02/13 01:23:13;;;;;;;18.87;10.70;;;;;;;;;;5057377;28;20478;-83
2024/02/13 01:25:39;;;;;;;17.08;10.38;;;;;;;;;;5056734;28;20427;-81
2024/02/13 01:28:09;;;;;;;13.88;9.40;;;;;;;;;;5076028;28;20240;-81
2024/02/13 01:30:35;;;;;;;15.95;9.77;;;;;;;;;;5066477;28;20194;-81
2024/02/13 01:33:01;;;;;;;16.77;10.55;;;;;;;;;;5056303;28;20205;-81
2024/02/13 01:35:27;;;;;;;20.30;11.02;;;;;;;;;;5043732;28;20184;-81
2024/02/13 01:37:54;;;;;;;19.00;10.80;;;;;;;;;;5054508;28;20269;-81
2024/02/13 01:40:20;;;;;;;15.13;10.73;;;;;;;;;;5046239;28;20581;-82
2024/02/13 01:42:48;;;;;;;27.85;9.80;;;;;;;;;;5045120;28;20189;-82
2024/02/13 01:45:14;;;;;;;15.60;11.23;;;;;;;;;;5050563;28;20657;-82
2024/02/13 01:47:42;;;;;;;18.85;10.48;;;;;;;;;;5044588;28;20185;-82
2024/02/13 01:50:20;;;;;;;24.38;10.07;;;;;;;;;;5050103;28;20177;-82
2024/02/13 01:52:46;;;;;;;21.40;11.20;;;;;;;;;;5072572;28;20169;-82
2024/02/13 01:55:14;;;;;;;19.73;11.02;;;;;;;;;;5050118;28;20263;-82
2024/02/13 01:57:40;;;;;;;19.23;11.77;;;;;;;;;;5067789;28;20246;-82
2024/02/13 02:00:13;;;;;;;19.65;12.70;;;;;;;;;;5049965;28;20190;-83
2024/02/13 02:02:41;;;;;;;26.50;14.65;;;;;;;;;;5040224;28;20193;-83
2024/02/13 02:05:10;;;;;;;24.48;14.48;;;;;;;;;;5057707;28;20239;-83
2024/02/13 02:07:37;;;;;;;23.70;11.35;;;;;;;;;;5050598;28;20183;-83
2024/02/13 02:10:03;;;;;;;20.90;11.55;;;;;;;;;;5068119;28;20197;-83
2024/02/13 02:12:30;;;;;;;21.38;11.20;;;;;;;;;;5068929;28;20249;-82
2024/02/13 02:14:57;;;;;;;17.08;10.90;;;;;;;;;;5047968;28;20179;-83
2024/02/13 02:17:23;;;;;;;19.80;11.02;;;;;;;;;;5050994;28;20612;-83
2024/02/13 02:19:49;;;;;;;18.50;11.63;;;;;;;;;;5038855;28;20221;-82
2024/02/13 02:22:15;;;;;;;19.17;10.98;;;;;;;;;;5065092;28;20416;-83
2024/02/13 02:24:41;;;;;;;20.35;9.38;;;;;;;;;;5073143;28;20216;-82
2024/02/13 02:27:07;;;;;;;16.80;9.83;;;;;;;;;;5055153;28;20220;-83
2024/02/13 02:29:34;;;;;;;15.30;9.48;;;;;;;;;;5047789;28;20484;-83
2024/02/13 02:32:00;;;;;;;19.33;9.68;;;;;;;;;;5053155;28;20188;-82
2024/02/13 02:34:26;;;;;;;20.55;10.05;;;;;;;;;;5050196;28;20303;-83
2024/02/13 02:36:52;;;;;;;16.58;10.20;;;;;;;;;;5069222;28;20173;-82
2024/02/13 02:39:19;;;;;;;18.03;10.53;;;;;;;;;;5049594;28;20193;-83
2024/02/13 02:41:45;;;;;;;14.48;8.57;;;;;;;;;;5053585;28;20432;-83
2024/02/13 02:44:11;;;;;;;17.58;10.90;;;;;;;;;;5061783;28;20204;-83
2024/02/13 02:46:38;;;;;;;21.42;10.48;;;;;;;;;;5034815;28;20178;-82
2024/02/13 02:49:05;;;;;;;20.33;10.10;;;;;;;;;;5051519;28;20230;-83
2024/02/13 02:51:31;;;;;;;19.40;10.43;;;;;;;;;;5065705;28;20194;-82
2024/02/13 02:53:57;;;;;;;18.10;9.30;;;;;;;;;;5057376;28;20180;-83
2024/02/13 02:56:24;;;;;;;19.63;9.55;;;;;;;;;;5042792;28;20638;-82
2024/02/13 02:58:50;;;;;;;16.38;9.55;;;;;;;;;;5057580;28;20248;-83
2024/02/13 03:01:16;;;;;;;17.90;9.23;;;;;;;;;;5059303;28;20186;-81
2024/02/13 03:03:42;;;;;;;22.67;10.27;;;;;;;;;;5063984;28;20188;-83
2024/02/13 03:06:08;;;;;;;20.08;10.15;;;;;;;;;;5052373;28;20188;-82
2024/02/13 03:08:34;;;;;;;17.57;10.70;;;;;;;;;;5074875;28;20184;-83
2024/02/13 03:11:00;;;;;;;18.95;10.25;;;;;;;;;;5058821;28;20418;-82
2024/02/13 03:13:26;;;;;;;15.00;8.77;;;;;;;;;;5054230;28;20672;-83
2024/02/13 03:15:52;;;;;;;14.70;9.60;;;;;;;;;;5074114;28;20436;-83
2024/02/13 03:18:18;;;;;;;20.23;11.77;;;;;;;;;;5070851;28;20208;-83
2024/02/13 03:20:45;;;;;;;15.75;10.90;;;;;;;;;;5073726;28;20185;-82
2024/02/13 03:23:10;;;;;;;22.92;14.35;;;;;;;;;;5071058;28;20258;-82
2024/02/13 03:25:37;;;;;;;27.53;13.27;;;;;;;;;;5053109;28;20209;-83
2024/02/13 03:28:04;;;;;;;25.38;14.73;;;;;;;;;;5072120;28;20907;-84
2024/02/13 03:30:30;;;;;;;31.38;13.38;;;;;;;;;;5031026;28;20184;-82
2024/02/13 03:32:56;;;;;;;23.55;13.35;;;;;;;;;;5077370;28;20184;-83
2024/02/13 03:35:22;;;;;;;20.65;12.38;;;;;;;;;;5046309;28;20184;-84
2024/02/13 03:37:48;;;;;;;18.65;11.98;;;;;;;;;;5050124;28;20752;-83
2024/02/13 03:40:16;;;;;;;25.10;12.90;;;;;;;;;;5069667;28;20198;-82
2024/02/13 03:42:43;;;;;;;19.10;11.57;;;;;;;;;;5063773;28;20437;-83
2024/02/13 03:45:10;;;;;;;18.95;13.15;;;;;;;;;;5075353;28;20190;-83
2024/02/13 03:47:36;;;;;;;20.05;12.82;;;;;;;;;;5074591;28;20245;-83
2024/02/13 03:50:02;;;;;;;21.75;13.30;;;;;;;;;;5051917;28;20195;-83
2024/02/13 03:52:28;;;;;;;27.27;13.75;;;;;;;;;;5053358;28;20290;-83
2024/02/13 03:54:54;;;;;;;27.83;13.80;;;;;;;;;;5058012;28;20181;-83
2024/02/13 03:57:21;;;;;;;18.23;11.60;;;;;;;;;;5052808;28;20180;-83
2024/02/13 03:59:46;;;;;;;21.58;13.00;;;;;;;;;;5055406;28;20297;-83
2024/02/13 04:02:12;;;;;;;24.47;12.87;;;;;;;;;;5040315;28;20182;-83
2024/02/13 04:04:39;;;;;;;24.00;13.10;;;;;;;;;;5044101;28;20438;-82
2024/02/13 04:07:05;;;;;;;28.00;13.02;;;;;;;;;;5049319;28;20439;-83
2024/02/13 04:09:32;;;;;;;30.02;15.85;;;;;;;;;;5053710;28;20192;-82
2024/02/13 04:11:58;;;;;;;31.83;13.38;;;;;;;;;;5046767;28;20212;-82
2024/02/13 04:14:25;;;;;;;25.30;12.88;;;;;;;;;;5059532;28;20377;-82
2024/02/13 04:16:51;;;;;;;18.35;12.00;;;;;;;;;;5055570;28;20180;-82
2024/02/13 04:19:17;;;;;;;25.40;12.85;;;;;;;;;;5065675;28;20208;-83
2024/02/13 04:21:44;;;;;;;23.90;12.70;;;;;;;;;;5045617;28;20692;-83
2024/02/13 04:24:10;;;;;;;27.10;13.15;;;;;;;;;;5054761;28;20189;-82
2024/02/13 04:26:40;;;;;;;19.25;12.05;;;;;;;;;;5064695;28;20220;-83
2024/02/13 04:29:07;;;;;;;21.38;11.82;;;;;;;;;;5067674;28;20227;-83
2024/02/13 04:31:35;;;;;;;19.95;11.82;;;;;;;;;;5047853;28;20220;-83
2024/02/13 04:34:02;;;;;;;27.80;13.07;;;;;;;;;;5068112;28;20180;-82
2024/02/13 04:36:28;;;;;;;30.17;12.70;;;;;;;;;;5067864;28;20172;-82
2024/02/13 04:38:54;;;;;;;32.45;13.98;;;;;;;;;;5043273;28;20291;-83
2024/02/13 04:41:20;;;;;;;21.92;12.55;;;;;;;;;;5046644;28;20191;-83
2024/02/13 04:43:47;;;;;;;26.73;12.07;;;;;;;;;;5072800;28;20184;-83
2024/02/13 04:46:13;;;;;;;21.92;12.60;;;;;;;;;;5052891;28;20426;-82
2024/02/13 04:48:39;;;;;;;22.57;12.73;;;;;;;;;;5066499;28;20193;-82
2024/02/13 04:51:05;;;;;;;24.05;13.30;;;;;;;;;;5069265;28;20433;-83
2024/02/13 04:53:31;;;;;;;18.70;10.93;;;;;;;;;;5074780;28;20187;-83
2024/02/13 04:55:57;;;;;;;21.65;12.05;;;;;;;;;;5031993;28;20438;-82
2024/02/13 04:58:23;;;;;;;25.02;12.40;;;;;;;;;;5053266;28;20215;-83
2024/02/13 05:01:01;;;;;;;25.20;12.93;;;;;;;;;;5052716;28;20633;-83
2024/02/13 05:03:39;;;;;;;14.57;9.75;;;;;;;;;;5049822;28;20580;-83
2024/02/13 05:08:55;;;;;;;19.40;10.57;;;;;;;;;;5058028;28;20678;-83
2024/02/13 05:11:21;;;;;;;17.77;10.38;;;;;;;;;;5058686;28;20175;-85
2024/02/13 05:13:47;;;;;;;18.63;10.43;;;;;;;;;;5042049;28;20271;-84
2024/02/13 05:16:13;;;;;;;20.60;9.55;;;;;;;;;;5040024;28;20215;-84
2024/02/13 05:18:39;;;;;;;14.13;9.63;;;;;;;;;;5063257;28;20606;-84
2024/02/13 05:21:06;;;;;;;19.40;9.57;;;;;;;;;;5070356;28;20207;-84
2024/02/13 05:23:32;;;;;;;18.42;9.63;;;;;;;;;;5051953;28;20477;-84
2024/02/13 05:25:58;;;;;;;21.20;9.48;;;;;;;;;;5029672;28;20182;-83
2024/02/13 05:28:24;;;;;;;14.82;8.88;;;;;;;;;;5061468;28;20345;-84
2024/02/13 05:30:50;;;;;;;16.77;8.20;;;;;;;;;;5069294;28;20638;-84
2024/02/13 05:33:16;;;;;;;14.10;8.50;;;;;;;;;;5069282;28;20431;-84
2024/02/13 05:35:44;;;;;;;13.65;8.35;;;;;;;;;;5037605;28;20180;-83
2024/02/13 05:38:10;;;;;;;15.43;8.82;;;;;;;;;;5050592;28;20216;-84
2024/02/13 05:40:38;;;;;;;12.57;7.93;;;;;;;;;;5050488;28;20195;-83
2024/02/13 05:43:05;;;;;;;12.23;8.20;;;;;;;;;;5049116;28;20178;-83
2024/02/13 05:45:31;;;;;;;13.82;8.48;;;;;;;;;;5071377;28;20175;-83
2024/02/13 05:47:57;;;;;;;11.13;7.90;;;;;;;;;;5028706;28;20190;-83
2024/02/13 05:50:23;;;;;;;11.60;7.75;;;;;;;;;;5053132;28;20427;-83
2024/02/13 05:52:50;;;;;;;10.90;7.25;;;;;;;;;;5047281;28;20717;-84
2024/02/13 05:55:16;;;;;;;11.95;7.15;;;;;;;;;;5054480;28;20309;-84
2024/02/13 05:57:42;;;;;;;10.27;7.35;;;;;;;;;;5072958;28;20188;-83
2024/02/13 06:00:09;;;;;;;9.77;7.00;;;;;;;;;;5053182;28;20174;-84
2024/02/13 06:02:36;;;;;;;13.02;6.13;;;;;;;;;;5052282;28;20196;-84
2024/02/13 06:05:02;;;;;;;14.15;7.15;;;;;;;;;;5037110;28;20183;-83
2024/02/13 06:07:28;;;;;;;12.68;6.88;;;;;;;;;;5047119;28;20186;-83
2024/02/13 06:09:54;;;;;;;9.82;6.60;;;;;;;;;;5054344;28;20621;-83
2024/02/13 06:12:20;;;;;;;13.23;6.85;;;;;;;;;;5053151;28;20676;-83
2024/02/13 06:14:47;;;;;;;13.57;6.10;;;;;;;;;;5044360;28;20183;-83
2024/02/13 06:17:13;;;;;;;9.98;6.15;;;;;;;;;;5054609;28;20416;-84
2024/02/13 06:19:39;;;;;;;12.07;7.05;;;;;;;;;;5064613;28;20292;-83
2024/02/13 06:22:05;;;;;;;9.75;6.90;;;;;;;;;;5049152;28;20241;-84
2024/02/13 06:24:31;;;;;;;12.88;6.80;;;;;;;;;;5048279;28;20183;-84
2024/02/13 06:26:57;;;;;;;9.43;6.70;;;;;;;;;;5068199;28;20326;-84
2024/02/13 06:29:23;;;;;;;8.32;5.25;;;;;;;;;;5071757;28;20516;-84
2024/02/13 06:31:52;;;;;;;9.25;6.38;;;;;;;;;;5068357;28;20207;-83
2024/02/13 06:34:19;;;;;;;9.70;7.07;;;;;;;;;;5059209;28;20203;-84
2024/02/13 06:36:45;;;;;;;11.38;5.68;;;;;;;;;;5065038;28;20186;-84
2024/02/13 06:39:12;;;;;;;7.95;6.05;;;;;;;;;;5064784;28;20245;-83
2024/02/13 06:41:39;;;;;;;11.05;5.68;;;;;;;;;;5057255;28;20177;-83
2024/02/13 06:44:05;;;;;;;10.15;6.15;;;;;;;;;;5058968;28;20592;-84
2024/02/13 06:46:31;;;;;;;9.25;6.30;;;;;;;;;;5055672;28;20274;-84
2024/02/13 06:48:57;;;;;;;10.13;6.60;;;;;;;;;;5052027;28;20191;-83
2024/02/13 06:51:24;;;;;;;11.15;5.75;;;;;;;;;;5066457;28;20171;-83
2024/02/13 06:53:50;;;;;;;8.43;5.10;;;;;;;;;;5061581;28;20530;-84
2024/02/13 06:56:17;;;;;;;11.95;6.07;;;;;;;;;;5072609;28;20197;-83
2024/02/13 06:58:43;;;;;;;7.47;5.82;;;;;;;;;;5048769;28;20320;-85
2024/02/13 07:01:09;;;;;;;9.17;5.40;;;;;;;;;;5075058;28;20213;-85
2024/02/13 07:03:36;;;;;;;10.37;6.10;;;;;;;;;;5061176;28;20758;-85
2024/02/13 07:06:02;;;;;;;9.52;6.18;;;;;;;;;;5073124;28;20428;-84
2024/02/13 07:08:28;;;;;;;7.88;5.28;;;;;;;;;;5055211;28;20202;-85
2024/02/13 07:10:54;;;;;;;9.40;5.23;;;;;;;;;;5049230;28;20194;-84
2024/02/13 07:13:20;;;;;;;6.82;5.38;;;;;;;;;;5032905;28;20456;-85
2024/02/13 07:15:46;;;;;;;9.00;5.00;;;;;;;;;;5070132;28;20645;-84
2024/02/13 07:18:12;;;;;;;9.80;5.30;;;;;;;;;;5038396;28;20215;-84
2024/02/13 07:20:38;;;;;;;10.17;5.93;;;;;;;;;;5050813;28;20231;-85
2024/02/13 07:23:04;;;;;;;10.80;6.43;;;;;;;;;;5056216;28;20830;-84
2024/02/13 07:25:30;;;;;;;9.95;5.65;;;;;;;;;;5060475;28;20187;-85
2024/02/13 07:28:00;;;;;;;9.77;5.40;;;;;;;;;;5051313;28;20342;-85
2024/02/13 07:30:26;;;;;;;11.20;5.80;;;;;;;;;;5035936;28;20473;-83
2024/02/13 07:32:52;;;;;;;9.02;4.50;;;;;;;;;;5074692;28;20690;-84
2024/02/13 07:35:20;;;;;;;9.48;5.20;;;;;;;;;;5058415;28;20754;-84
2024/02/13 07:37:47;;;;;;;6.70;4.70;;;;;;;;;;5026626;28;20208;-83
2024/02/13 07:40:14;;;;;;;7.80;4.57;;;;;;;;;;5056415;28;20207;-83
2024/02/13 07:42:40;;;;;;;8.20;5.18;;;;;;;;;;5056739;28;20179;-84
2024/02/13 07:45:06;;;;;;;20.02;9.68;;;;;;;;;;5051495;28;20216;-84
2024/02/13 07:47:33;;;;;;;10.20;5.97;;;;;;;;;;5052109;28;20185;-84
2024/02/13 07:49:59;;;;;;;6.57;5.13;;;;;;;;;;5071566;28;20181;-84
2024/02/13 07:52:25;;;;;;;8.80;5.00;;;;;;;;;;5047903;28;20195;-84
2024/02/13 07:54:51;;;;;;;13.45;6.72;;;;;;;;;;5058866;28;20939;-84
2024/02/13 07:57:17;;;;;;;9.20;5.50;;;;;;;;;;5068386;28;20652;-84
2024/02/13 07:59:44;;;;;;;7.45;4.93;;;;;;;;;;5037131;28;20227;-84
2024/02/13 08:02:10;;;;;;;6.57;4.35;;;;;;;;;;5054320;28;20192;-83
2024/02/13 08:04:45;;;;;;;8.05;4.70;;;;;;;;;;5065604;28;20245;-83
2024/02/13 08:07:11;;;;;;;9.10;4.80;;;;;;;;;;5071758;28;20181;-84
2024/02/13 08:09:37;;;;;;;8.40;6.28;;;;;;;;;;5062350;28;20195;-84
2024/02/13 08:12:06;;;;;;;8.02;4.05;;;;;;;;;;5060676;28;20183;-84
2024/02/13 08:14:32;;;;;;;10.40;4.45;;;;;;;;;;5052620;28;20176;-84
2024/02/13 08:16:58;;;;;;;9.77;5.53;;;;;;;;;;5032335;28;20280;-84
2024/02/13 08:19:26;;;;;;;7.03;4.50;;;;;;;;;;5071777;28;20207;-83
2024/02/13 08:21:52;;;;;;;12.05;5.40;;;;;;;;;;5055656;28;20203;-84
2024/02/13 08:24:18;;;;;;;6.93;4.85;;;;;;;;;;5073883;28;20556;-83
2024/02/13 08:26:44;;;;;;;6.63;4.67;;;;;;;;;;5048458;28;20226;-83
2024/02/13 08:29:10;;;;;;;7.28;4.85;;;;;;;;;;5066983;28;20525;-83
2024/02/13 08:31:36;;;;;;;11.40;6.00;;;;;;;;;;5076354;28;20188;-83
2024/02/13 08:34:02;;;;;;;10.00;7.28;;;;;;;;;;5036451;28;20839;-83
2024/02/13 08:36:29;;;;;;;8.05;5.85;;;;;;;;;;5047016;28;20176;-83
2024/02/13 08:38:55;;;;;;;8.60;5.68;;;;;;;;;;5064649;28;20215;-83
2024/02/13 08:41:22;;;;;;;10.13;6.03;;;;;;;;;;5052849;28;20215;-83
2024/02/13 08:43:48;;;;;;;9.77;5.57;;;;;;;;;;5066499;28;20426;-83
2024/02/13 08:46:19;;;;;;;7.78;5.13;;;;;;;;;;5069561;28;20196;-82
2024/02/13 08:48:45;;;;;;;7.40;5.70;;;;;;;;;;5074471;28;20548;-83
2024/02/13 08:51:11;;;;;;;7.90;4.97;;;;;;;;;;5052714;28;20279;-83
2024/02/13 08:53:37;;;;;;;12.30;5.77;;;;;;;;;;5033851;28;20275;-83
2024/02/13 08:56:03;;;;;;;17.10;5.60;;;;;;;;;;5065726;28;20424;-83
2024/02/13 08:58:29;;;;;;;10.13;5.50;;;;;;;;;;5034502;28;20463;-82
2024/02/13 09:00:55;;;;;;;9.63;6.43;;;;;;;;;;5075879;28;20191;-82
2024/02/13 09:03:22;;;;;;;7.80;5.28;;;;;;;;;;5066955;28;20469;-83
2024/02/13 09:05:48;;;;;;;7.97;4.90;;;;;;;;;;5070986;28;20181;-84
2024/02/13 09:08:14;;;;;;;9.30;5.30;;;;;;;;;;5065866;28;20251;-83
2024/02/13 09:10:41;;;;;;;5.95;4.00;;;;;;;;;;5060597;28;20424;-83
2024/02/13 09:13:07;;;;;;;7.97;4.25;;;;;;;;;;5084305;28;20198;-96
2024/02/13 09:20:41;;;;;;;7.85;3.50;;;;;;;;;;5081776;28;20212;-81
2024/02/13 09:23:08;;;;;;;7.30;3.55;;;;;;;;;;5056093;28;20184;-82
2024/02/13 09:25:38;;;;;;;5.60;3.20;;;;;;;;;;5053058;28;20215;-81
2024/02/13 09:28:04;;;;;;;3.53;2.30;;;;;;;;;;5058683;28;20246;-82
2024/02/13 09:30:31;;;;;;;7.30;2.85;;;;;;;;;;5048504;28;20181;-82
2024/02/13 09:32:57;;;;;;;7.15;2.33;;;;;;;;;;5068056;28;20197;-82
2024/02/13 09:35:23;;;;;;;8.80;2.10;;;;;;;;;;5039624;28;20185;-82
2024/02/13 09:37:49;;;;;;;7.88;1.92;;;;;;;;;;5066095;28;20441;-82
2024/02/13 09:40:16;;;;;;;1.90;1.50;;;;;;;;;;5067902;28;20185;-82
2024/02/13 09:42:43;;;;;;;7.00;1.45;;;;;;;;;;5070346;28;20175;-81
2024/02/13 09:45:10;;;;;;;2.53;1.00;;;;;;;;;;5047142;28;20184;-82
2024/02/13 09:47:38;;;;;;;2.92;1.33;;;;;;;;;;5071689;28;20233;-82
2024/02/13 09:50:06;;;;;;;2.97;1.20;;;;;;;;;;5042421;28;20191;-82
2024/02/13 09:52:33;;;;;;;5.90;1.20;;;;;;;;;;5061443;28;20185;-81
2024/02/13 09:54:59;;;;;;;8.57;1.50;;;;;;;;;;5071545;28;20184;-81
2024/02/13 09:57:25;;;;;;;1.60;0.80;;;;;;;;;;5067606;28;20184;-81
2024/02/13 09:59:51;;;;;;;6.45;0.98;;;;;;;;;;5051189;28;20221;-81
2024/02/13 10:02:19;;;;;;;3.35;0.80;;;;;;;;;;5059944;28;20180;-82
2024/02/13 10:04:45;;;;;;;4.15;1.00;;;;;;;;;;5045002;28;20620;-82
2024/02/13 10:07:11;;;;;;;5.15;0.90;;;;;;;;;;5061192;28;20241;-82
2024/02/13 10:09:37;;;;;;;3.67;1.30;;;;;;;;;;5057767;28;20275;-82
2024/02/13 10:12:12;;;;;;;2.83;1.15;;;;;;;;;;5067995;28;20427;-81
2024/02/13 10:14:38;;;;;;;1.52;0.90;;;;;;;;;;5051310;28;20191;-82
2024/02/13 10:17:11;;;;;;;2.93;0.90;;;;;;;;;;5064462;28;20191;-82
2024/02/13 10:19:38;;;;;;;3.08;0.80;;;;;;;;;;5072460;28;20489;-82
2024/02/13 10:22:09;;;;;;;5.57;1.55;;;;;;;;;;5075956;28;20264;-82
2024/02/13 10:24:35;;;;;;;4.22;0.95;;;;;;;;;;5052318;28;20184;-82
2024/02/13 10:27:03;;;;;;;2.90;1.10;;;;;;;;;;5054112;28;20552;-82
2024/02/13 10:29:39;;;;;;;1.40;0.88;;;;;;;;;;5066582;28;20455;-82
2024/02/13 10:32:07;;;;;;;3.13;1.00;;;;;;;;;;5071031;28;20581;-82
2024/02/13 10:34:37;;;;;;;5.07;2.30;;;;;;;;;;5048223;28;20182;-82
2024/02/13 10:37:06;;;;;;;2.03;0.98;;;;;;;;;;5078949;28;20255;-82
2024/02/13 10:39:34;;;;;;;5.43;0.98;;;;;;;;;;5072956;28;20564;-82
2024/02/13 10:42:01;;;;;;;4.07;1.13;;;;;;;;;;5066844;28;20181;-82
2024/02/13 10:44:28;;;;;;;1.60;1.33;;;;;;;;;;5068058;28;20663;-81
2024/02/13 10:46:57;;;;;;;3.10;0.90;;;;;;;;;;5054711;28;20186;-82
2024/02/13 10:49:49;;;;;;;2.65;0.93;;;;;;;;;;5068160;28;20394;-82
2024/02/13 10:52:16;;;;;;;5.35;0.85;;;;;;;;;;5075265;28;20615;-82
2024/02/13 10:54:46;;;;;;;1.40;0.70;;;;;;;;;;5069420;28;20203;-82
2024/02/13 10:57:16;;;;;;;5.57;1.15;;;;;;;;;;5072228;28;20161;-82
2024/02/13 10:59:45;;;;;;;4.47;0.73;;;;;;;;;;5075883;28;20291;-82
2024/02/13 11:02:17;;;;;;;1.30;0.70;;;;;;;;;;5071746;28;20265;-82
2024/02/13 11:04:46;;;;;;;4.60;1.02;;;;;;;;;;5071610;28;20182;-81
2024/02/13 11:07:12;;;;;;;2.45;0.82;;;;;;;;;;5052419;28;20185;-82
2024/02/13 11:09:38;;;;;;;1.52;0.85;;;;;;;;;;5063422;28;20826;-82
2024/02/13 11:12:05;;;;;;;3.33;1.00;;;;;;;;;;5065179;28;20185;-82
2024/02/13 11:14:31;;;;;;;3.50;0.95;;;;;;;;;;5065459;28;20264;-82
2024/02/13 11:17:01;;;;;;;4.30;1.00;;;;;;;;;;5067218;28;20189;-82
2024/02/13 11:19:37;;;;;;;2.40;1.00;;;;;;;;;;5052947;28;20235;-82
2024/02/13 11:22:04;;;;;;;2.88;1.05;;;;;;;;;;5075492;28;20168;-82
2024/02/13 11:24:40;;;;;;;1.70;0.80;;;;;;;;;;5070228;28;20579;-82
2024/02/13 11:27:06;;;;;;;1.73;0.80;;;;;;;;;;5076535;28;20180;-82
2024/02/13 11:29:32;;;;;;;3.83;1.10;;;;;;;;;;5072518;28;20194;-82
2024/02/13 11:31:58;;;;;;;5.28;1.05;;;;;;;;;;5077564;28;20177;-82
2024/02/13 11:34:44;;;;;;;2.10;1.05;;;;;;;;;;5059249;28;20173;-82
2024/02/13 11:37:28;;;;;;;3.55;1.10;;;;;;;;;;5053600;28;20276;-81
2024/02/13 11:39:55;;;;;;;0.93;0.60;;;;;;;;;;5067340;28;20575;-81
2024/02/13 11:42:25;;;;;;;3.92;1.08;;;;;;;;;;5068377;28;20164;-82
2024/02/13 11:44:53;;;;;;;2.03;0.90;;;;;;;;;;5074997;28;20173;-81
2024/02/13 11:47:19;;;;;;;2.10;1.03;;;;;;;;;;5069861;28;20606;-81
2024/02/13 11:49:51;;;;;;;1.75;0.90;;;;;;;;;;5068862;28;20515;-82
2024/02/13 11:52:17;;;;;;;1.42;0.80;;;;;;;;;;5057468;28;20185;-82
2024/02/13 11:54:47;;;;;;;1.70;0.93;;;;;;;;;;5062963;28;20195;-81
2024/02/13 11:57:14;;;;;;;2.15;0.90;;;;;;;;;;5067353;28;20174;-82
2024/02/13 11:59:40;;;;;;;4.55;1.55;;;;;;;;;;5065951;28;20244;-82
2024/02/13 12:02:13;;;;;;;3.90;0.68;;;;;;;;;;5073304;28;20196;-82
2024/02/13 12:04:41;;;;;;;2.85;1.00;;;;;;;;;;5054153;28;20181;-82
2024/02/13 12:07:07;;;;;;;1.92;1.00;;;;;;;;;;5068525;28;20192;-83
2024/02/13 12:09:36;;;;;;;2.00;0.75;;;;;;;;;;5073238;28;20258;-82
2024/02/13 12:12:02;;;;;;;1.95;0.80;;;;;;;;;;5067275;28;20169;-82
2024/02/13 12:14:29;;;;;;;3.08;0.82;;;;;;;;;;5064274;28;20319;-82
2024/02/13 12:17:01;;;;;;;1.33;0.70;;;;;;;;;;5050375;28;20641;-82
2024/02/13 12:19:27;;;;;;;3.08;1.30;;;;;;;;;;5069882;28;20482;-82
2024/02/13 12:21:53;;;;;;;2.47;1.00;;;;;;;;;;5072167;28;20550;-82
2024/02/13 12:24:20;;;;;;;3.53;0.80;;;;;;;;;;5049997;28;20431;-82
2024/02/13 12:26:47;;;;;;;1.20;0.70;;;;;;;;;;5053738;28;20270;-82
2024/02/13 12:29:18;;;;;;;1.83;1.00;;;;;;;;;;5055859;28;20177;-82
2024/02/13 12:31:47;;;;;;;1.63;1.00;;;;;;;;;;5053699;28;20615;-82
2024/02/13 12:34:16;;;;;;;3.45;0.82;;;;;;;;;;5074492;28;20169;-83
2024/02/13 12:36:42;;;;;;;0.98;0.80;;;;;;;;;;5048086;28;20202;-82
2024/02/13 12:39:16;;;;;;;1.77;0.60;;;;;;;;;;5066977;28;20208;-82
2024/02/13 12:41:46;;;;;;;1.60;0.95;;;;;;;;;;5072143;28;20498;-80
2024/02/13 12:44:17;;;;;;;1.45;1.00;;;;;;;;;;5069739;28;20757;-82
2024/02/13 12:46:43;;;;;;;2.78;0.60;;;;;;;;;;5048919;28;20190;-81
2024/02/13 12:49:10;;;;;;;2.40;0.90;;;;;;;;;;5067714;28;20195;-81
2024/02/13 12:51:39;;;;;;;3.40;1.10;;;;;;;;;;5059921;28;20272;-82
2024/02/13 12:54:06;;;;;;;3.40;1.00;;;;;;;;;;5071152;28;20184;-82
2024/02/13 12:56:40;;;;;;;6.53;1.33;;;;;;;;;;5045958;28;20424;-82
2024/02/13 12:59:08;;;;;;;4.13;1.40;;;;;;;;;;5065967;28;20266;-81
2024/02/13 13:01:37;;;;;;;4.80;1.60;;;;;;;;;;5047126;28;20288;-82
2024/02/13 13:04:03;;;;;;;5.30;1.23;;;;;;;;;;5031949;28;20722;-82
2024/02/13 13:06:33;;;;;;;1.75;0.80;;;;;;;;;;5068991;28;20177;-82
2024/02/13 13:09:02;;;;;;;4.85;1.20;;;;;;;;;;5055819;28;20243;-82
2024/02/13 13:11:28;;;;;;;5.60;1.38;;;;;;;;;;5032511;28;20185;-82
2024/02/13 13:13:55;;;;;;;5.70;1.25;;;;;;;;;;5068743;28;20263;-82
2024/02/13 13:16:23;;;;;;;3.67;1.40;;;;;;;;;;5073550;28;20245;-82
2024/02/13 13:18:50;;;;;;;3.90;1.35;;;;;;;;;;5063967;28;20233;-82
2024/02/13 13:21:16;;;;;;;2.03;1.02;;;;;;;;;;5069539;28;20334;-82
2024/02/13 13:23:45;;;;;;;2.10;1.40;;;;;;;;;;5071080;28;20177;-82
2024/02/13 13:26:15;;;;;;;1.95;1.08;;;;;;;;;;5061705;28;20190;-82
2024/02/13 13:28:45;;;;;;;2.35;1.70;;;;;;;;;;5035867;28;20193;-82
2024/02/13 13:31:14;;;;;;;2.25;1.17;;;;;;;;;;5071978;28;20180;-82
2024/02/13 13:33:41;;;;;;;3.85;1.30;;;;;;;;;;5067645;28;20177;-81
2024/02/13 13:36:08;;;;;;;5.80;1.38;;;;;;;;;;5045442;28;20180;-82
2024/02/13 13:38:36;;;;;;;4.40;1.70;;;;;;;;;;5072847;28;20250;-81
2024/02/13 13:41:03;;;;;;;3.17;1.00;;;;;;;;;;5068171;28;20227;-82
2024/02/13 13:43:30;;;;;;;2.83;0.90;;;;;;;;;;5026407;28;20650;-82
2024/02/13 13:45:56;;;;;;;3.88;1.08;;;;;;;;;;5049612;28;20670;-82
2024/02/13 13:48:23;;;;;;;5.00;1.48;;;;;;;;;;5064942;28;20181;-82
2024/02/13 13:50:50;;;;;;;4.38;1.10;;;;;;;;;;5054831;28;20192;-82
2024/02/13 13:53:16;;;;;;;4.50;1.80;;;;;;;;;;5071777;28;20192;-82
2024/02/13 13:55:43;;;;;;;1.33;1.00;;;;;;;;;;5039442;28;20177;-82
2024/02/13 13:58:09;;;;;;;5.63;1.70;;;;;;;;;;5047658;28;20209;-82
2024/02/13 14:00:36;;;;;;;4.30;1.57;;;;;;;;;;5053398;28;20186;-82
2024/02/13 14:03:03;;;;;;;2.67;1.10;;;;;;;;;;5054979;28;20415;-82
2024/02/13 14:05:39;;;;;;;5.70;1.08;;;;;;;;;;5064850;28;20201;-82
2024/02/13 14:08:05;;;;;;;3.35;0.93;;;;;;;;;;5065785;28;20281;-82
2024/02/13 14:10:35;;;;;;;2.45;1.15;;;;;;;;;;5048441;28;20648;-83
2024/02/13 14:13:03;;;;;;;2.90;1.88;;;;;;;;;;5065311;28;20521;-82
2024/02/13 14:15:30;;;;;;;4.80;1.77;;;;;;;;;;5043910;28;20277;-82
2024/02/13 14:17:59;;;;;;;2.75;1.10;;;;;;;;;;5064331;28;20644;-82
2024/02/13 14:20:26;;;;;;;4.75;1.30;;;;;;;;;;5034487;28;20240;-81
2024/02/13 14:22:54;;;;;;;2.40;1.25;;;;;;;;;;5068972;28;20182;-82
2024/02/13 14:25:20;;;;;;;2.45;1.00;;;;;;;;;;5056300;28;20512;-82
2024/02/13 14:27:46;;;;;;;2.45;1.00;;;;;;;;;;5068059;28;20181;-82
2024/02/13 14:30:14;;;;;;;2.45;1.15;;;;;;;;;;5061679;28;20211;-82
2024/02/13 14:32:40;;;;;;;7.75;1.50;;;;;;;;;;5074200;28;20229;-83
2024/02/13 14:35:07;;;;;;;2.60;1.15;;;;;;;;;;5061385;28;20265;-82
2024/02/13 14:37:33;;;;;;;4.38;1.00;;;;;;;;;;5067198;28;20203;-82
2024/02/13 14:40:01;;;;;;;1.52;0.88;;;;;;;;;;5049635;28;20691;-82